Time;durP1;ratioP1;P1;durP2;ratioP2;P2;SDS_P1;SDS_P2;PMS_P1;PMS_P2;Temp;Humidity;BMP_temperature;BMP_pressure;BME280_temperature;BME280_humidity;BME280_pressure;Samples;Min_cycle;Max_cycle;Signal;HPM_P1;HPM_P2
2022/11/15 00:00:06;;;;;;;;;;;7.50;99.90;;;;;;5027055;28;19913;-67
2022/11/15 00:02:32;;;;;;;;;;;7.40;99.90;;;;;;5025693;28;19971;-67
2022/11/15 00:04:57;;;;;;;;;;;7.40;99.90;;;;;;5024874;28;20421;-69
2022/11/15 00:07:22;;;;;;;;;;;7.40;99.90;;;;;;5026635;28;19921;-67
2022/11/15 00:09:48;;;;;;;;;;;7.40;99.90;;;;;;5026710;28;19917;-67
2022/11/15 00:12:13;;;;;;;;;;;7.40;99.90;;;;;;5026077;28;19917;-67
2022/11/15 00:14:39;;;;;;;;;;;7.40;99.90;;;;;;5026532;28;19948;-67
2022/11/15 00:17:04;;;;;;;;;;;7.40;99.90;;;;;;5025036;28;20012;-69
2022/11/15 00:19:30;;;;;;;;;;;7.40;99.90;;;;;;5025514;28;19920;-68
2022/11/15 00:21:55;;;;;;;;;;;7.40;99.90;;;;;;5026876;28;20002;-67
2022/11/15 00:24:21;;;;;;;;;;;7.40;99.90;;;;;;5025466;28;20355;-67
2022/11/15 00:26:46;;;;;;;;;;;7.40;99.90;;;;;;5025263;28;19913;-70
2022/11/15 00:29:12;;;;;;;;;;;7.40;99.90;;;;;;5024907;28;19920;-68
2022/11/15 00:31:37;;;;;;;;;;;7.40;99.90;;;;;;5025750;28;19923;-68
2022/11/15 00:34:03;;;;;;;;;;;7.50;99.90;;;;;;5025381;28;19939;-68
2022/11/15 00:36:28;;;;;;;;;;;7.40;99.90;;;;;;5024095;28;19964;-66
2022/11/15 00:38:53;;;;;;;;;;;7.50;99.90;;;;;;5026441;28;20066;-68
2022/11/15 00:41:19;;;;;;;;;;;7.50;99.90;;;;;;5025479;28;19917;-69
2022/11/15 00:43:44;;;;;;;;;;;7.50;99.90;;;;;;5025978;28;19917;-70
2022/11/15 00:46:10;;;;;;;;;;;7.50;99.90;;;;;;5025822;28;19940;-68
2022/11/15 00:48:36;;;;;;;;;;;7.50;99.90;;;;;;5026970;28;20321;-69
2022/11/15 00:51:01;;;;;;;;;;;7.50;99.90;;;;;;5026691;28;20435;-66
2022/11/15 00:53:27;;;;;;;;;;;7.50;99.90;;;;;;5025041;28;19913;-68
2022/11/15 00:55:52;;;;;;;;;;;7.60;99.90;;;;;;5026159;28;20297;-69
2022/11/15 00:58:18;;;;;;;;;;;7.60;99.90;;;;;;5025752;28;19917;-67
2022/11/15 01:00:43;;;;;;;;;;;7.50;99.90;;;;;;5025745;28;19924;-67
2022/11/15 01:03:09;;;;;;;;;;;7.70;99.90;;;;;;5023387;28;19917;-69
2022/11/15 01:05:36;;;;;;;;;;;7.70;99.90;;;;;;5025929;28;19928;-67
2022/11/15 01:08:02;;;;;;;;;;;7.70;99.90;;;;;;5024838;28;20355;-69
2022/11/15 01:10:27;;;;;;;;;;;7.70;99.90;;;;;;5025199;28;19932;-69
2022/11/15 01:12:53;;;;;;;;;;;7.70;99.90;;;;;;5024458;28;19917;-67
2022/11/15 01:15:18;;;;;;;;;;;7.80;99.90;;;;;;5024957;28;19955;-68
2022/11/15 01:17:44;;;;;;;;;;;7.80;99.90;;;;;;5025758;28;19913;-68
2022/11/15 01:20:09;;;;;;;;;;;7.80;99.90;;;;;;5024833;28;19921;-67
2022/11/15 01:22:35;;;;;;;;;;;7.80;99.90;;;;;;5025478;28;20416;-67
2022/11/15 01:25:00;;;;;;;;;;;7.80;99.90;;;;;;5025806;28;20359;-69
2022/11/15 01:27:26;;;;;;;;;;;7.80;99.90;;;;;;5023382;28;19936;-68
2022/11/15 01:29:51;;;;;;;;;;;7.90;99.90;;;;;;5025556;28;20701;-67
2022/11/15 01:32:17;;;;;;;;;;;7.90;99.90;;;;;;5023364;28;20047;-68
2022/11/15 01:34:43;;;;;;;;;;;7.90;99.90;;;;;;5024020;28;19924;-69
2022/11/15 01:37:09;;;;;;;;;;;8.00;99.90;;;;;;5024213;28;19929;-67
2022/11/15 01:39:34;;;;;;;;;;;8.00;99.90;;;;;;5025259;28;19913;-68
2022/11/15 01:42:00;;;;;;;;;;;8.00;99.90;;;;;;5028116;28;19941;-68
2022/11/15 01:44:34;;;;;;;;;;;8.00;99.90;;;;;;5028114;28;19920;-69
2022/11/15 01:47:01;;;;;;;;;;;8.00;99.90;;;;;;5029161;28;19966;-67
2022/11/15 01:49:28;;;;;;;;;;;8.10;99.90;;;;;;5029109;28;19916;-68
2022/11/15 01:51:54;;;;;;;;;;;8.10;99.90;;;;;;5029476;28;19917;-69
2022/11/15 01:54:21;;;;;;;;;;;8.10;99.90;;;;;;5028977;28;20392;-67
2022/11/15 01:56:50;;;;;;;;;;;8.20;99.90;;;;;;5029357;28;20010;-67
2022/11/15 01:59:16;;;;;;;;;;;8.20;99.90;;;;;;5024641;28;19917;-67
2022/11/15 02:01:42;;;;;;;;;;;8.20;99.90;;;;;;5030201;28;19920;-67
2022/11/15 02:04:10;;;;;;;;;;;8.20;99.90;;;;;;5023308;28;20336;-67
2022/11/15 02:06:36;;;;;;;;;;;8.20;99.90;;;;;;5029166;28;19936;-68
2022/11/15 02:09:02;;;;;;;;;;;8.30;99.90;;;;;;5029812;28;19917;-67
2022/11/15 02:11:28;;;;;;;;;;;8.30;99.90;;;;;;5028714;28;19923;-67
2022/11/15 02:13:54;;;;;;;;;;;8.30;99.90;;;;;;5029586;28;19917;-68
2022/11/15 02:16:28;;;;;;;;;;;8.30;99.90;;;;;;5028670;28;19924;-68
2022/11/15 02:19:13;;;;;;;;;;;8.30;99.90;;;;;;5028993;28;19913;-69
2022/11/15 02:21:50;;;;;;;;;;;8.40;99.90;;;;;;5027458;28;19939;-66
2022/11/15 02:24:24;;;;;;;;;;;8.40;99.90;;;;;;5023343;28;19917;-68
2022/11/15 02:27:03;;;;;;;;;;;8.40;99.90;;;;;;5024891;28;19917;-69
2022/11/15 02:30:07;;;;;;;;;;;8.50;99.90;;;;;;5028225;28;19927;-67
2022/11/15 02:32:48;;;;;;;;;;;8.50;99.90;;;;;;5004678;28;19940;-67
2022/11/15 02:35:17;;;;;;;;;;;8.60;99.90;;;;;;5002232;28;19919;-68
2022/11/15 02:37:54;;;;;;;;;;;8.60;99.90;;;;;;5012173;28;20568;-68
2022/11/15 02:40:35;;;;;;;;;;;8.60;99.90;;;;;;5024562;28;20373;-68
2022/11/15 02:45:51;;;;;;;;;;;8.70;99.90;;;;;;5024373;28;20344;-68
2022/11/15 02:48:17;;;;;;;;;;;8.70;99.90;;;;;;5027414;28;19913;-67
2022/11/15 02:50:43;;;;;;;;;;;8.70;99.90;;;;;;5028829;28;19925;-69
2022/11/15 02:53:09;;;;;;;;;;;8.80;99.90;;;;;;5026887;28;20016;-68
2022/11/15 02:55:36;;;;;;;;;;;8.80;99.90;;;;;;5027942;28;19980;-68
2022/11/15 02:58:10;;;;;;;;;;;8.80;99.90;;;;;;5028187;28;19921;-68
2022/11/15 03:00:38;;;;;;;;;;;8.90;99.90;;;;;;5028526;28;19920;-69
2022/11/15 03:03:13;;;;;;;;;;;8.90;99.90;;;;;;5027444;28;20381;-68
2022/11/15 03:05:47;;;;;;;;;;;8.90;99.90;;;;;;5026099;28;19927;-68
2022/11/15 03:08:28;;;;;;;;;;;9.00;99.90;;;;;;5024349;28;20433;-67
2022/11/15 03:11:08;;;;;;;;;;;9.00;99.90;;;;;;5025180;28;19917;-69
2022/11/15 03:13:37;;;;;;;;;;;9.00;99.90;;;;;;5017734;28;19971;-70
2022/11/15 03:16:04;;;;;;;;;;;9.10;99.90;;;;;;5022358;28;19921;-68
2022/11/15 03:18:33;;;;;;;;;;;9.10;99.90;;;;;;5025633;28;19947;-69
2022/11/15 03:21:00;;;;;;;;;;;9.10;99.90;;;;;;5026659;28;19963;-67
2022/11/15 03:23:26;;;;;;;;;;;9.10;99.90;;;;;;5025469;28;20361;-69
2022/11/15 03:25:53;;;;;;;;;;;9.20;99.90;;;;;;5028648;28;19970;-69
2022/11/15 03:28:22;;;;;;;;;;;9.20;99.90;;;;;;5026863;28;19913;-70
2022/11/15 03:30:49;;;;;;;;;;;9.20;99.90;;;;;;5026838;28;19917;-68
2022/11/15 03:33:14;;;;;;;;;;;9.20;99.90;;;;;;5025619;28;19913;-68
2022/11/15 03:35:42;;;;;;;;;;;9.20;99.90;;;;;;5027549;28;19913;-69
2022/11/15 03:38:21;;;;;;;;;;;9.20;99.90;;;;;;5023780;28;19916;-68
2022/11/15 03:41:00;;;;;;;;;;;9.20;99.90;;;;;;5022735;28;19924;-67
2022/11/15 03:43:31;;;;;;;;;;;9.30;99.90;;;;;;5027049;28;19917;-68
2022/11/15 03:46:06;;;;;;;;;;;9.30;99.90;;;;;;5026505;28;20031;-69
2022/11/15 03:48:35;;;;;;;;;;;9.40;99.90;;;;;;5021358;28;19921;-69
2022/11/15 03:51:01;;;;;;;;;;;9.40;99.90;;;;;;5021479;28;20379;-71
2022/11/15 03:53:27;;;;;;;;;;;9.40;99.90;;;;;;5026223;28;19913;-66
2022/11/15 03:55:53;;;;;;;;;;;9.40;99.90;;;;;;5026022;28;19913;-69
2022/11/15 03:58:18;;;;;;;;;;;9.40;99.90;;;;;;5024906;28;19913;-69
2022/11/15 04:00:44;;;;;;;;;;;9.50;99.90;;;;;;5028024;28;20011;-68
2022/11/15 04:03:09;;;;;;;;;;;9.50;99.90;;;;;;5027377;28;19913;-69
2022/11/15 04:05:35;;;;;;;;;;;9.50;99.90;;;;;;5022990;28;20017;-69
2022/11/15 04:08:00;;;;;;;;;;;9.50;99.90;;;;;;5026949;28;19928;-68
2022/11/15 04:10:25;;;;;;;;;;;9.50;99.90;;;;;;5025237;28;19939;-69
2022/11/15 04:12:51;;;;;;;;;;;9.60;99.90;;;;;;5027384;28;19924;-69
2022/11/15 04:15:18;;;;;;;;;;;9.50;99.90;;;;;;5026155;28;19917;-68
2022/11/15 04:17:43;;;;;;;;;;;9.50;99.90;;;;;;5027088;28;19919;-68
2022/11/15 04:25:41;;;;;;;;;;;9.50;99.90;;;;;;5023232;28;19967;-69
2022/11/15 04:28:07;;;;;;;;;;;9.50;99.90;;;;;;5025552;28;19913;-70
2022/11/15 04:30:32;;;;;;;;;;;9.50;99.90;;;;;;5026486;28;19971;-69
2022/11/15 04:32:58;;;;;;;;;;;9.60;99.90;;;;;;5025130;28;21481;-68
2022/11/15 04:35:23;;;;;;;;;;;9.60;99.90;;;;;;5025893;28;19917;-69
2022/11/15 04:37:48;;;;;;;;;;;9.60;99.90;;;;;;5026988;28;19928;-69
2022/11/15 04:40:14;;;;;;;;;;;9.70;99.90;;;;;;5024873;28;19913;-68
2022/11/15 04:42:43;;;;;;;;;;;9.70;99.90;;;;;;5025163;28;19919;-69
2022/11/15 04:45:09;;;;;;;;;;;9.70;99.90;;;;;;5026808;28;19926;-69
2022/11/15 04:47:34;;;;;;;;;;;9.70;99.90;;;;;;5020157;28;20429;-68
2022/11/15 04:50:00;;;;;;;;;;;9.70;99.90;;;;;;5026920;28;20055;-68
2022/11/15 04:52:25;;;;;;;;;;;9.80;99.90;;;;;;5024504;28;19963;-68
2022/11/15 04:54:51;;;;;;;;;;;9.80;99.90;;;;;;5026503;28;19917;-69
2022/11/15 04:57:17;;;;;;;;;;;9.90;99.90;;;;;;5024778;28;19924;-70
2022/11/15 04:59:42;;;;;;;;;;;9.80;99.90;;;;;;5025376;28;19923;-69
2022/11/15 05:02:08;;;;;;;;;;;9.80;99.90;;;;;;5026497;28;19921;-68
2022/11/15 05:04:33;;;;;;;;;;;9.90;99.90;;;;;;5024891;28;19980;-69
2022/11/15 05:06:59;;;;;;;;;;;9.90;99.90;;;;;;5026729;28;20336;-68
2022/11/15 05:09:24;;;;;;;;;;;9.90;99.90;;;;;;5024993;28;19917;-67
2022/11/15 05:11:50;;;;;;;;;;;10.00;99.90;;;;;;5024678;28;19921;-69
2022/11/15 05:14:15;;;;;;;;;;;10.00;99.90;;;;;;5025092;28;20281;-68
2022/11/15 05:16:41;;;;;;;;;;;10.00;99.90;;;;;;5027983;28;20024;-69
2022/11/15 05:19:07;;;;;;;;;;;10.10;99.90;;;;;;5029127;28;19917;-67
2022/11/15 05:21:32;;;;;;;;;;;10.10;99.90;;;;;;5029519;28;20417;-69
2022/11/15 05:23:58;;;;;;;;;;;10.10;99.90;;;;;;5028484;28;19931;-68
2022/11/15 05:26:24;;;;;;;;;;;10.10;99.90;;;;;;5029425;28;20004;-69
2022/11/15 05:28:56;;;;;;;;;;;10.10;99.90;;;;;;5030024;28;19924;-68
2022/11/15 05:31:22;;;;;;;;;;;10.10;99.90;;;;;;5026876;28;19916;-68
2022/11/15 05:33:48;;;;;;;;;;;10.20;99.90;;;;;;5028277;28;19987;-68
2022/11/15 05:36:31;;;;;;;;;;;10.20;99.90;;;;;;5029362;28;19939;-68
2022/11/15 05:38:56;;;;;;;;;;;10.20;99.90;;;;;;5027905;28;19995;-71
2022/11/15 05:41:25;;;;;;;;;;;10.20;99.90;;;;;;5028870;28;20041;-71
2022/11/15 05:43:51;;;;;;;;;;;10.20;99.90;;;;;;5027867;28;19924;-70
2022/11/15 05:46:17;;;;;;;;;;;10.20;99.90;;;;;;5029027;28;20373;-70
2022/11/15 05:48:45;;;;;;;;;;;10.20;99.90;;;;;;5029571;28;20027;-69
2022/11/15 05:51:12;;;;;;;;;;;10.20;99.90;;;;;;5028042;28;19921;-69
2022/11/15 05:53:37;;;;;;;;;;;10.20;99.90;;;;;;5027447;28;19966;-69
2022/11/15 05:56:04;;;;;;;;;;;10.20;99.90;;;;;;5029391;28;19917;-68
2022/11/15 05:58:31;;;;;;;;;;;10.20;99.90;;;;;;5024778;28;19999;-67
2022/11/15 06:00:56;;;;;;;;;;;10.30;99.90;;;;;;5030235;28;19913;-69
2022/11/15 06:03:22;;;;;;;;;;;10.30;99.90;;;;;;5016638;28;19927;-68
2022/11/15 06:05:47;;;;;;;;;;;10.30;99.90;;;;;;5022312;28;19917;-68
2022/11/15 06:08:13;;;;;;;;;;;10.30;99.90;;;;;;5020091;28;19923;-69
2022/11/15 06:10:38;;;;;;;;;;;10.30;99.90;;;;;;5023338;28;20369;-66
2022/11/15 06:13:04;;;;;;;;;;;10.30;99.90;;;;;;5020850;28;19917;-69
2022/11/15 06:15:31;;;;;;;;;;;10.30;99.90;;;;;;5020975;28;19967;-68
2022/11/15 06:17:57;;;;;;;;;;;10.40;99.90;;;;;;5017822;28;19976;-69
2022/11/15 06:20:23;;;;;;;;;;;10.40;99.90;;;;;;5022699;28;19921;-71
2022/11/15 06:22:48;;;;;;;;;;;10.40;99.90;;;;;;5020082;28;19925;-69
2022/11/15 06:25:14;;;;;;;;;;;10.40;99.90;;;;;;5016395;28;19927;-70
2022/11/15 06:27:39;;;;;;;;;;;10.40;99.90;;;;;;5021152;28;19917;-68
2022/11/15 06:30:05;;;;;;;;;;;10.40;99.90;;;;;;5021235;28;19917;-71
2022/11/15 06:32:31;;;;;;;;;;;10.40;99.90;;;;;;5021744;28;19917;-70
2022/11/15 06:34:56;;;;;;;;;;;10.40;99.90;;;;;;5018280;28;19971;-68
2022/11/15 06:37:21;;;;;;;;;;;10.30;99.90;;;;;;5021114;28;19917;-68
2022/11/15 06:39:47;;;;;;;;;;;10.40;99.90;;;;;;5018277;28;19944;-68
2022/11/15 06:42:12;;;;;;;;;;;10.40;99.90;;;;;;5019251;28;19921;-67
2022/11/15 06:44:38;;;;;;;;;;;10.40;99.90;;;;;;5021630;28;19999;-68
2022/11/15 06:47:03;;;;;;;;;;;10.40;99.90;;;;;;5020255;28;19940;-68
2022/11/15 06:49:29;;;;;;;;;;;10.30;99.90;;;;;;5019360;28;20013;-68
2022/11/15 06:51:54;;;;;;;;;;;10.40;99.90;;;;;;5023149;28;20333;-70
2022/11/15 06:54:20;;;;;;;;;;;10.40;99.90;;;;;;5017634;28;20000;-70
2022/11/15 06:56:46;;;;;;;;;;;10.40;99.90;;;;;;5018882;28;19968;-68
2022/11/15 06:59:11;;;;;;;;;;;10.30;99.90;;;;;;5022951;28;19921;-72
2022/11/15 07:01:37;;;;;;;;;;;10.30;99.90;;;;;;5019456;28;19917;-72
2022/11/15 07:04:02;;;;;;;;;;;10.30;99.90;;;;;;5022120;28;20706;-68
2022/11/15 07:06:28;;;;;;;;;;;10.30;99.90;;;;;;5018417;28;19921;-69
2022/11/15 07:08:53;;;;;;;;;;;10.20;99.90;;;;;;5019590;28;20298;-70
2022/11/15 07:11:19;;;;;;;;;;;10.20;99.90;;;;;;5018916;28;19925;-70
2022/11/15 07:13:44;;;;;;;;;;;10.20;99.90;;;;;;5021650;28;20388;-68
2022/11/15 07:16:10;;;;;;;;;;;10.10;99.90;;;;;;5021118;28;19924;-69
2022/11/15 07:18:36;;;;;;;;;;;10.10;99.90;;;;;;5019282;28;20597;-68
2022/11/15 07:21:03;;;;;;;;;;;10.10;99.90;;;;;;5017175;28;19921;-71
2022/11/15 07:23:28;;;;;;;;;;;10.10;99.90;;;;;;5020398;28;19913;-70
2022/11/15 07:25:56;;;;;;;;;;;10.10;99.90;;;;;;5019145;28;19932;-68
2022/11/15 07:28:21;;;;;;;;;;;10.10;99.90;;;;;;5019343;28;19917;-68
2022/11/15 07:30:46;;;;;;;;;;;10.10;99.90;;;;;;5018092;28;20620;-70
2022/11/15 07:33:12;;;;;;;;;;;10.00;99.90;;;;;;5020090;28;19921;-71
2022/11/15 07:35:37;;;;;;;;;;;10.00;99.90;;;;;;5020064;28;20342;-67
2022/11/15 07:38:03;;;;;;;;;;;10.10;99.90;;;;;;5019714;28;19920;-68
2022/11/15 07:40:29;;;;;;;;;;;10.10;99.90;;;;;;5017420;28;19921;-68
2022/11/15 07:42:59;;;;;;;;;;;10.10;99.90;;;;;;5018152;28;19921;-68
2022/11/15 07:45:27;;;;;;;;;;;10.10;99.90;;;;;;5016238;28;20677;-67
2022/11/15 07:47:53;;;;;;;;;;;10.10;99.90;;;;;;5020455;28;19920;-68
2022/11/15 07:50:18;;;;;;;;;;;10.10;99.90;;;;;;5016750;28;20285;-67
2022/11/15 07:52:44;;;;;;;;;;;10.10;99.90;;;;;;5015894;28;19917;-69
2022/11/15 07:55:10;;;;;;;;;;;10.10;99.90;;;;;;5016527;28;19917;-68
2022/11/15 07:57:35;;;;;;;;;;;10.20;99.90;;;;;;5021272;28;19964;-69
2022/11/15 08:00:01;;;;;;;;;;;10.20;99.90;;;;;;5019276;28;19996;-68
2022/11/15 08:02:27;;;;;;;;;;;10.30;99.90;;;;;;5017030;28;19913;-68
2022/11/15 08:04:52;;;;;;;;;;;10.30;99.90;;;;;;5020287;28;19921;-69
2022/11/15 08:07:18;;;;;;;;;;;10.30;99.90;;;;;;5017190;28;19967;-67
2022/11/15 08:09:43;;;;;;;;;;;10.30;99.90;;;;;;5019266;28;20447;-69
2022/11/15 08:12:09;;;;;;;;;;;10.40;99.90;;;;;;5018983;28;19921;-71
2022/11/15 08:14:34;;;;;;;;;;;10.40;99.90;;;;;;5016893;28;19921;-69
2022/11/15 08:17:00;;;;;;;;;;;10.50;99.90;;;;;;5019637;28;20593;-67
2022/11/15 08:19:25;;;;;;;;;;;10.50;99.90;;;;;;5021201;28;19968;-67
2022/11/15 08:21:51;;;;;;;;;;;10.50;99.90;;;;;;5018208;28;20539;-69
2022/11/15 08:24:16;;;;;;;;;;;10.50;99.90;;;;;;5014921;28;20183;-68
2022/11/15 08:26:42;;;;;;;;;;;10.50;99.90;;;;;;5019632;28;19928;-67
2022/11/15 08:29:08;;;;;;;;;;;10.50;99.90;;;;;;5019762;28;19921;-68
2022/11/15 08:31:34;;;;;;;;;;;10.60;99.90;;;;;;5015860;28;19917;-67
2022/11/15 08:34:00;;;;;;;;;;;10.60;99.90;;;;;;5019163;28;19923;-68
2022/11/15 08:36:25;;;;;;;;;;;10.60;99.90;;;;;;5015166;28;20407;-69
2022/11/15 08:38:51;;;;;;;;;;;10.70;99.90;;;;;;5016099;28;19917;-70
2022/11/15 08:41:21;;;;;;;;;;;10.70;99.90;;;;;;5016885;28;20362;-69
2022/11/15 08:43:47;;;;;;;;;;;10.70;99.90;;;;;;5018476;28;19967;-68
2022/11/15 08:46:13;;;;;;;;;;;10.80;99.90;;;;;;5019468;28;19948;-73
2022/11/15 08:48:39;;;;;;;;;;;10.80;99.90;;;;;;5017928;28;19943;-67
2022/11/15 08:51:04;;;;;;;;;;;10.80;99.90;;;;;;5016495;28;20416;-69
2022/11/15 08:53:30;;;;;;;;;;;10.90;99.90;;;;;;5015673;28;19917;-68
2022/11/15 08:55:55;;;;;;;;;;;11.00;99.90;;;;;;5019412;28;19926;-69
2022/11/15 08:58:21;;;;;;;;;;;11.00;99.90;;;;;;5016396;28;20382;-68
2022/11/15 09:00:46;;;;;;;;;;;11.10;99.90;;;;;;5015498;28;19914;-69
2022/11/15 09:03:12;;;;;;;;;;;11.20;99.90;;;;;;5017275;28;19920;-70
2022/11/15 09:05:37;;;;;;;;;;;11.20;99.90;;;;;;5013976;28;20372;-70
2022/11/15 09:08:03;;;;;;;;;;;11.30;99.90;;;;;;5016496;28;19924;-68
2022/11/15 09:10:29;;;;;;;;;;;11.30;99.90;;;;;;5017064;28;20338;-70
2022/11/15 09:12:56;;;;;;;;;;;11.30;99.90;;;;;;5016090;28;19916;-69
2022/11/15 09:15:22;;;;;;;;;;;11.40;99.90;;;;;;5016132;28;19917;-68
2022/11/15 09:17:47;;;;;;;;;;;11.50;99.90;;;;;;5017208;28;20419;-67
2022/11/15 09:20:12;;;;;;;;;;;11.40;99.90;;;;;;5013393;28;19917;-75
2022/11/15 09:22:38;;;;;;;;;;;11.50;99.90;;;;;;5016675;28;19921;-68
2022/11/15 09:25:04;;;;;;;;;;;11.50;99.90;;;;;;5017392;28;19914;-67
2022/11/15 09:27:30;;;;;;;;;;;11.50;99.90;;;;;;5016138;28;19971;-67
2022/11/15 09:29:56;;;;;;;;;;;11.50;99.90;;;;;;5014059;28;19963;-69
2022/11/15 09:32:23;;;;;;;;;;;11.50;99.90;;;;;;5014771;28;19922;-67
2022/11/15 09:34:49;;;;;;;;;;;11.60;99.90;;;;;;5014841;28;20468;-67
2022/11/15 09:37:14;;;;;;;;;;;11.60;99.90;;;;;;5011466;28;20016;-67
2022/11/15 09:39:39;;;;;;;;;;;11.60;99.90;;;;;;5014864;28;19980;-68
2022/11/15 09:42:25;;;;;;;;;;;11.70;99.90;;;;;;5017053;28;20357;-68
2022/11/15 09:44:57;;;;;;;;;;;11.70;99.90;;;;;;5015766;28;20310;-67
2022/11/15 09:47:32;;;;;;;;;;;11.80;99.90;;;;;;5016754;28;19925;-69
2022/11/15 09:49:59;;;;;;;;;;;11.80;99.90;;;;;;5014969;28;20722;-69
2022/11/15 09:52:24;;;;;;;;;;;11.80;99.90;;;;;;5014895;28;19913;-67
2022/11/15 09:54:51;;;;;;;;;;;11.80;99.90;;;;;;5016965;28;19921;-69
2022/11/15 09:57:24;;;;;;;;;;;11.70;99.90;;;;;;5018401;28;20281;-69
2022/11/15 09:59:49;;;;;;;;;;;11.80;99.90;;;;;;5014158;28;20437;-69
2022/11/15 10:02:17;;;;;;;;;;;11.80;99.90;;;;;;5017013;28;20079;-70
2022/11/15 10:04:43;;;;;;;;;;;11.80;99.90;;;;;;5017535;28;20011;-67
2022/11/15 10:07:15;;;;;;;;;;;11.90;99.90;;;;;;5021419;28;20423;-70
2022/11/15 10:09:47;;;;;;;;;;;12.00;99.90;;;;;;5021138;28;19921;-70
2022/11/15 10:12:13;;;;;;;;;;;12.00;99.90;;;;;;5018268;28;19932;-69
2022/11/15 10:14:39;;;;;;;;;;;11.90;99.90;;;;;;5019158;28;19921;-67
2022/11/15 10:17:19;;;;;;;;;;;11.90;99.90;;;;;;5020750;28;20842;-68
2022/11/15 10:19:59;;;;;;;;;;;11.90;99.90;;;;;;5021806;28;19971;-70
2022/11/15 10:22:26;;;;;;;;;;;11.90;99.90;;;;;;5013641;28;19928;-67
2022/11/15 10:25:00;;;;;;;;;;;11.90;99.90;;;;;;5017861;28;19986;-69
2022/11/15 10:27:25;;;;;;;;;;;12.00;99.90;;;;;;5019628;28;19971;-68
2022/11/15 10:29:51;;;;;;;;;;;12.00;99.90;;;;;;5021337;28;19924;-70
2022/11/15 10:32:18;;;;;;;;;;;12.00;99.90;;;;;;5017183;28;20290;-68
2022/11/15 10:34:43;;;;;;;;;;;11.90;99.90;;;;;;5021285;28;20343;-67
2022/11/15 10:37:09;;;;;;;;;;;12.00;99.90;;;;;;5017043;28;19966;-69
2022/11/15 10:39:34;;;;;;;;;;;12.00;99.90;;;;;;5017945;28;19917;-72
2022/11/15 10:42:20;;;;;;;;;;;12.10;99.90;;;;;;5018635;28;20297;-69
2022/11/15 10:44:46;;;;;;;;;;;12.20;99.90;;;;;;5008673;28;20030;-68
2022/11/15 10:47:22;;;;;;;;;;;12.40;99.90;;;;;;5018115;28;20419;-69
2022/11/15 10:49:55;;;;;;;;;;;12.50;99.90;;;;;;5019843;28;19928;-69
2022/11/15 10:52:22;;;;;;;;;;;12.60;99.90;;;;;;5016790;28;19925;-71
2022/11/15 10:54:56;;;;;;;;;;;12.70;99.90;;;;;;5018868;28;20015;-69
2022/11/15 10:57:27;;;;;;;;;;;12.60;99.90;;;;;;5017511;28;19924;-69
2022/11/15 10:59:56;;;;;;;;;;;12.60;99.90;;;;;;5018408;28;19917;-71
2022/11/15 11:02:28;;;;;;;;;;;12.60;99.90;;;;;;5017398;28;19917;-71
2022/11/15 11:04:53;;;;;;;;;;;12.60;99.90;;;;;;5016026;28;19917;-69
2022/11/15 11:07:27;;;;;;;;;;;12.70;99.90;;;;;;5013597;28;19921;-68
2022/11/15 11:10:17;;;;;;;;;;;12.90;99.90;;;;;;5014283;28;19928;-70
2022/11/15 11:12:42;;;;;;;;;;;13.00;99.90;;;;;;5017728;28;20321;-70
2022/11/15 11:15:12;;;;;;;;;;;13.00;99.90;;;;;;5015747;28;19995;-68
2022/11/15 11:17:44;;;;;;;;;;;12.90;99.90;;;;;;5016506;28;20704;-68
2022/11/15 11:20:27;;;;;;;;;;;12.70;99.90;;;;;;5015933;28;19917;-68
2022/11/15 11:23:01;;;;;;;;;;;12.60;99.90;;;;;;5014758;28;19923;-68
2022/11/15 11:25:41;;;;;;;;;;;12.50;99.90;;;;;;5017011;28;19920;-68
2022/11/15 11:28:25;;;;;;;;;;;12.40;99.90;;;;;;5019742;28;20020;-68
2022/11/15 11:30:56;;;;;;;;;;;12.40;99.90;;;;;;5015116;28;19971;-69
2022/11/15 11:33:27;;;;;;;;;;;12.30;99.90;;;;;;5018326;28;19913;-69
2022/11/15 11:35:56;;;;;;;;;;;12.30;99.90;;;;;;5019874;28;19921;-68
2022/11/15 11:38:30;;;;;;;;;;;12.30;99.90;;;;;;5014544;28;19967;-68
2022/11/15 11:41:05;;;;;;;;;;;12.30;99.90;;;;;;5016756;28;20389;-68
2022/11/15 11:43:37;;;;;;;;;;;12.30;99.90;;;;;;5015284;28;19917;-67
2022/11/15 11:46:12;;;;;;;;;;;12.40;99.90;;;;;;5019238;28;19932;-69
2022/11/15 11:48:40;;;;;;;;;;;12.40;99.90;;;;;;5017458;28;20417;-69
2022/11/15 11:51:18;;;;;;;;;;;12.40;99.90;;;;;;5018211;28;19924;-68
2022/11/15 11:53:50;;;;;;;;;;;12.40;99.90;;;;;;5015916;28;19968;-67
2022/11/15 11:56:22;;;;;;;;;;;12.40;99.90;;;;;;5018112;28;19956;-68
2022/11/15 11:58:47;;;;;;;;;;;12.40;99.90;;;;;;5018259;28;19949;-69
2022/11/15 12:01:25;;;;;;;;;;;12.50;99.90;;;;;;5020462;28;19917;-67
2022/11/15 12:04:13;;;;;;;;;;;12.40;99.90;;;;;;5017272;28;19913;-68
2022/11/15 12:06:57;;;;;;;;;;;12.40;99.90;;;;;;5018101;28;20389;-69
2022/11/15 12:09:35;;;;;;;;;;;12.50;99.90;;;;;;5015695;28;19925;-68
2022/11/15 12:12:13;;;;;;;;;;;12.50;99.90;;;;;;5019597;28;20069;-68
2022/11/15 12:14:39;;;;;;;;;;;12.50;99.90;;;;;;5015549;28;19924;-71
2022/11/15 12:17:04;;;;;;;;;;;12.50;99.90;;;;;;5018430;28;19919;-67
2022/11/15 12:19:30;;;;;;;;;;;12.50;99.90;;;;;;5015970;28;19917;-69
2022/11/15 12:22:04;;;;;;;;;;;12.50;99.90;;;;;;5018998;28;19943;-68
2022/11/15 12:24:59;;;;;;;;;;;12.50;99.90;;;;;;5017442;28;20626;-68
2022/11/15 12:27:30;;;;;;;;;;;12.50;99.90;;;;;;5013444;28;19924;-69
2022/11/15 12:29:58;;;;;;;;;;;12.50;99.90;;;;;;5016496;28;19967;-69
2022/11/15 12:32:23;;;;;;;;;;;12.60;99.90;;;;;;5016823;28;20020;-67
2022/11/15 12:34:50;;;;;;;;;;;12.60;99.90;;;;;;5014953;28;19917;-69
2022/11/15 12:37:34;;;;;;;;;;;12.60;99.90;;;;;;5013393;28;19917;-67
2022/11/15 12:40:02;;;;;;;;;;;12.70;99.90;;;;;;5016393;28;19916;-68
2022/11/15 12:42:28;;;;;;;;;;;12.70;99.90;;;;;;5010852;28;19917;-66
2022/11/15 12:44:53;;;;;;;;;;;12.70;99.90;;;;;;5014083;28;19923;-68
2022/11/15 12:47:23;;;;;;;;;;;12.70;99.90;;;;;;5012717;28;20302;-70
2022/11/15 12:49:49;;;;;;;;;;;12.70;99.90;;;;;;5017350;28;19925;-68
2022/11/15 12:52:14;;;;;;;;;;;12.70;99.90;;;;;;5016796;28;20404;-71
2022/11/15 12:54:40;;;;;;;;;;;12.80;99.90;;;;;;5018777;28;20369;-68
2022/11/15 12:57:06;;;;;;;;;;;12.80;99.90;;;;;;5016854;28;20004;-68
2022/11/15 12:59:47;;;;;;;;;;;12.70;99.90;;;;;;5015426;28;19967;-68
2022/11/15 13:02:23;;;;;;;;;;;12.70;99.90;;;;;;5017440;28;19982;-67
2022/11/15 13:04:50;;;;;;;;;;;12.80;99.90;;;;;;5014864;28;20011;-67
2022/11/15 13:07:34;;;;;;;;;;;12.80;99.90;;;;;;5015224;28;19921;-66
2022/11/15 13:09:59;;;;;;;;;;;12.70;99.90;;;;;;5015711;28;20634;-66
2022/11/15 13:12:25;;;;;;;;;;;12.70;99.90;;;;;;5016552;28;20008;-68
2022/11/15 13:14:54;;;;;;;;;;;12.70;99.90;;;;;;5014596;28;20691;-67
2022/11/15 13:17:20;;;;;;;;;;;12.60;99.90;;;;;;5017155;28;20342;-67
2022/11/15 13:19:46;;;;;;;;;;;12.60;99.90;;;;;;5015974;28;19921;-67
2022/11/15 13:24:56;;;;;;;;;;;12.50;99.90;;;;;;5014365;28;19924;-66
2022/11/15 13:27:21;;;;;;;;;;;12.50;99.90;;;;;;5019543;28;19913;-66
2022/11/15 13:29:47;;;;;;;;;;;12.50;99.90;;;;;;5017928;28;19917;-66
2022/11/15 13:32:13;;;;;;;;;;;12.50;99.90;;;;;;5018359;28;20345;-68
2022/11/15 13:34:43;;;;;;;;;;;12.50;99.90;;;;;;5013583;28;19920;-68
2022/11/15 13:37:20;;;;;;;;;;;12.40;99.90;;;;;;5018747;28;19924;-67
2022/11/15 13:39:47;;;;;;;;;;;12.40;99.90;;;;;;5022542;28;19979;-69
2022/11/15 13:42:16;;;;;;;;;;;12.40;99.90;;;;;;5021530;28;19917;-69
2022/11/15 13:44:55;;;;;;;;;;;12.30;99.90;;;;;;5014956;28;19917;-69
2022/11/15 13:47:20;;;;;;;;;;;12.30;99.90;;;;;;5017628;28;20049;-71
2022/11/15 13:49:46;;;;;;;;;;;12.30;99.90;;;;;;5020015;28;20432;-68
2022/11/15 13:52:14;;;;;;;;;;;12.30;99.90;;;;;;5018457;28;20008;-70
2022/11/15 13:54:43;;;;;;;;;;;12.40;99.90;;;;;;5017104;28;20475;-71
2022/11/15 13:57:14;;;;;;;;;;;12.40;99.90;;;;;;5019368;28;19917;-70
2022/11/15 13:59:48;;;;;;;;;;;12.40;99.90;;;;;;5016562;28;20592;-68
2022/11/15 14:02:15;;;;;;;;;;;12.40;99.90;;;;;;5018319;28;19921;-67
2022/11/15 14:04:53;;;;;;;;;;;12.40;99.90;;;;;;5019715;28;20285;-68
2022/11/15 14:07:23;;;;;;;;;;;12.40;99.90;;;;;;5020205;28;19917;-68
2022/11/15 14:09:49;;;;;;;;;;;12.40;99.90;;;;;;5017606;28;19924;-68
2022/11/15 14:12:23;;;;;;;;;;;12.40;99.90;;;;;;5018126;28;19921;-72
2022/11/15 14:14:49;;;;;;;;;;;12.40;99.90;;;;;;5020495;28;19917;-67
2022/11/15 14:17:32;;;;;;;;;;;12.40;99.90;;;;;;5019471;28;19966;-68
2022/11/15 14:19:57;;;;;;;;;;;12.40;99.90;;;;;;5019989;28;19935;-68
2022/11/15 14:22:27;;;;;;;;;;;12.40;99.90;;;;;;5020054;28;20440;-69
2022/11/15 14:25:12;;;;;;;;;;;12.40;99.90;;;;;;5018829;28;20004;-67
2022/11/15 14:27:38;;;;;;;;;;;12.40;99.90;;;;;;5020082;28;19917;-70
2022/11/15 14:30:03;;;;;;;;;;;12.30;99.90;;;;;;5018346;28;20614;-71
2022/11/15 14:32:43;;;;;;;;;;;12.30;99.90;;;;;;5018936;28;19921;-71
2022/11/15 14:35:12;;;;;;;;;;;12.30;99.90;;;;;;5015411;28;19928;-69
2022/11/15 14:37:38;;;;;;;;;;;12.30;99.90;;;;;;5016006;28;19967;-69